createdAt,value
2023-04-27T00:03:57.477Z,6.60
2023-04-27T00:08:59.587Z,6.68
2023-04-27T00:14:01.202Z,6.61
2023-04-27T00:19:02.800Z,6.59
2023-04-27T00:24:04.508Z,6.55
2023-04-27T00:29:06.040Z,6.60
2023-04-27T00:34:07.683Z,6.55
2023-04-27T00:39:09.281Z,6.58
2023-04-27T00:44:11.038Z,6.58
2023-04-27T00:49:12.735Z,6.55
2023-04-27T00:54:20.342Z,6.44
2023-04-27T00:59:22.227Z,6.39
2023-04-27T01:04:24.024Z,6.43
2023-04-27T01:09:26.322Z,6.30
2023-04-27T01:14:27.942Z,6.30
2023-04-27T01:19:29.509Z,6.23
2023-04-27T01:24:31.137Z,6.20
2023-04-27T01:29:32.981Z,6.09
2023-04-27T01:34:34.541Z,6.12
2023-04-27T01:39:36.197Z,6.12
2023-04-27T01:44:38.200Z,6.11
2023-04-27T01:49:39.792Z,6.02
2023-04-27T01:54:41.374Z,5.95
2023-04-27T01:59:42.979Z,5.92
2023-04-27T02:04:45.253Z,6.00
2023-04-27T02:09:47.192Z,5.85
2023-04-27T02:14:48.996Z,5.78
2023-04-27T02:19:50.572Z,5.81
2023-04-27T02:24:52.116Z,5.54
2023-04-27T02:29:55.706Z,5.68
2023-04-27T02:34:57.993Z,5.69
2023-04-27T02:40:02.102Z,5.67
2023-04-27T02:45:07.612Z,5.74
2023-04-27T02:50:09.787Z,5.63
2023-04-27T02:55:11.699Z,5.57
2023-04-27T03:00:13.689Z,5.57
2023-04-27T03:05:15.929Z,5.41
2023-04-27T03:10:17.524Z,5.39
2023-04-27T03:15:19.084Z,5.39
2023-04-27T03:20:22.025Z,5.37
2023-04-27T03:25:23.744Z,5.29
2023-04-27T03:30:25.312Z,5.24
2023-04-27T03:35:27.514Z,5.11
2023-04-27T03:40:29.074Z,5.25
2023-04-27T03:45:31.171Z,5.31
2023-04-27T03:50:33.218Z,5.26
2023-04-27T03:55:41.342Z,5.32
2023-04-27T04:00:43.761Z,5.31
2023-04-27T04:05:47.167Z,5.34
2023-04-27T04:10:49.058Z,5.28
2023-04-27T04:15:50.754Z,5.44
2023-04-27T04:20:52.407Z,5.38
2023-04-27T04:25:56.565Z,5.38
2023-04-27T04:31:01.601Z,5.32
2023-04-27T04:36:04.421Z,5.35
2023-04-27T04:41:07.241Z,5.46
2023-04-27T04:46:09.171Z,5.51
2023-04-27T04:51:10.783Z,5.54
2023-04-27T04:56:13.308Z,5.56
2023-04-27T05:01:14.878Z,5.77
2023-04-27T05:06:16.758Z,5.87
2023-04-27T05:11:18.366Z,6.13
2023-04-27T05:16:20.064Z,6.15
2023-04-27T05:21:22.194Z,6.09
2023-04-27T05:26:23.736Z,5.84
2023-04-27T05:31:25.437Z,6.07
2023-04-27T05:36:28.512Z,6.20
2023-04-27T05:41:30.513Z,6.03
2023-04-27T05:46:32.629Z,6.09
2023-04-27T05:51:34.405Z,6.30
2023-04-27T05:56:37.765Z,6.63
2023-04-27T06:01:39.478Z,6.69
2023-04-27T06:06:41.064Z,7.04
2023-04-27T06:11:42.665Z,7.14
2023-04-27T06:16:44.272Z,7.16
2023-04-27T06:21:46.395Z,7.17
2023-04-27T06:26:49.552Z,7.27
2023-04-27T06:31:51.329Z,7.31
2023-04-27T06:36:52.928Z,7.47
2023-04-27T06:41:54.582Z,7.22
2023-04-27T06:46:56.298Z,7.45
2023-04-27T06:51:57.929Z,7.54
2023-04-27T06:56:59.482Z,7.75
2023-04-27T07:02:01.324Z,7.78
2023-04-27T07:07:02.903Z,7.81
2023-04-27T07:12:04.586Z,7.76
2023-04-27T07:17:06.140Z,8.01
2023-04-27T07:22:07.686Z,8.08
2023-04-27T07:27:10.200Z,8.07
2023-04-27T07:32:11.793Z,8.27
2023-04-27T07:37:15.920Z,8.51
2023-04-27T07:42:18.487Z,8.73
2023-04-27T07:47:20.197Z,8.85
2023-04-27T07:52:22.169Z,9.14
2023-04-27T07:57:23.913Z,9.26
2023-04-27T08:02:30.343Z,9.18
2023-04-27T08:07:36.089Z,9.40
2023-04-27T08:12:41.314Z,9.69
2023-04-27T08:17:43.678Z,9.91
2023-04-27T08:22:45.273Z,10.02
2023-04-27T08:27:46.826Z,10.17
2023-04-27T08:32:48.473Z,9.88
2023-04-27T08:37:50.107Z,10.16
2023-04-27T08:42:59.463Z,10.45
2023-04-27T08:48:01.431Z,10.67
2023-04-27T08:53:03.037Z,10.64
2023-04-27T08:58:04.579Z,10.26
2023-04-27T09:03:06.412Z,10.52
2023-04-27T09:08:09.098Z,10.83
2023-04-27T09:13:10.651Z,11.17
2023-04-27T09:18:21.811Z,11.57
2023-04-27T09:23:31.311Z,11.48
2023-04-27T09:28:34.155Z,11.26
2023-04-27T09:33:36.156Z,11.69
2023-04-27T09:38:37.755Z,11.67
2023-04-27T09:43:41.225Z,11.35
2023-04-27T09:48:42.898Z,11.52
2023-04-27T09:53:51.932Z,11.80
2023-04-27T09:59:07.593Z,12.06
2023-04-27T10:04:28.094Z,11.56
2023-04-27T10:09:46.429Z,11.66
2023-04-27T10:14:58.216Z,12.18
2023-04-27T10:20:01.767Z,11.82
2023-04-27T10:25:31.636Z,11.92
2023-04-27T10:30:39.794Z,11.84
2023-04-27T10:35:43.485Z,11.85
2023-04-27T10:40:46.813Z,12.08
2023-04-27T10:45:48.864Z,12.29
2023-04-27T10:50:53.786Z,12.62
2023-04-27T10:55:59.160Z,12.59
2023-04-27T11:01:00.866Z,12.62
2023-04-27T11:06:05.002Z,12.51
2023-04-27T11:11:06.721Z,12.56
2023-04-27T11:16:08.381Z,12.57
2023-04-27T11:21:12.605Z,12.70
2023-04-27T11:26:19.375Z,12.02
2023-04-27T11:31:21.081Z,12.11
2023-04-27T11:36:23.498Z,12.31
2023-04-27T11:41:33.600Z,12.26
2023-04-27T11:46:38.199Z,12.31
2023-04-27T11:51:40.138Z,12.66
2023-04-27T11:56:42.708Z,12.65
2023-04-27T12:01:44.339Z,12.75
2023-04-27T12:06:45.938Z,12.81
2023-04-27T12:11:47.529Z,12.74
2023-04-27T12:16:49.135Z,12.90
2023-04-27T12:21:50.989Z,12.99
2023-04-27T12:26:52.592Z,13.37
2023-04-27T12:31:54.569Z,12.76
2023-04-27T12:36:56.258Z,13.03
2023-04-27T12:41:58.548Z,12.84
2023-04-27T12:47:00.153Z,13.09
2023-04-27T12:52:01.802Z,12.70
2023-04-27T12:57:06.282Z,13.00
2023-04-27T13:02:08.246Z,12.94
2023-04-27T13:07:09.823Z,12.81
2023-04-27T13:12:11.460Z,12.86
2023-04-27T13:17:13.118Z,12.86
2023-04-27T13:22:14.725Z,12.64
2023-04-27T13:27:17.113Z,12.31
2023-04-27T13:32:18.745Z,12.63
2023-04-27T13:37:20.360Z,12.75
2023-04-27T13:42:23.997Z,12.83
2023-04-27T13:47:25.666Z,12.58
2023-04-27T13:52:27.244Z,12.81
2023-04-27T13:57:28.828Z,12.66
2023-04-27T14:02:30.664Z,12.38
2023-04-27T14:07:34.215Z,12.45
2023-04-27T14:12:35.925Z,12.47
2023-04-27T14:17:37.541Z,12.04
2023-04-27T14:22:39.659Z,12.18
2023-04-27T14:27:41.201Z,12.20
2023-04-27T14:32:42.862Z,11.96
2023-04-27T14:37:44.431Z,12.10
2023-04-27T14:42:46.935Z,12.32
2023-04-27T14:47:48.764Z,12.36
2023-04-27T14:52:50.383Z,12.27
2023-04-27T14:57:52.085Z,12.21
2023-04-27T15:02:54.985Z,12.18
2023-04-27T15:07:56.625Z,12.19
2023-04-27T15:12:58.197Z,12.35
2023-04-27T15:17:59.897Z,12.38
2023-04-27T15:23:01.527Z,12.39
2023-04-27T15:28:03.536Z,12.33
2023-04-27T15:33:05.171Z,12.37
2023-04-27T15:38:12.066Z,12.37
2023-04-27T15:43:14.958Z,12.38
2023-04-27T15:48:16.691Z,12.39
2023-04-27T15:53:18.306Z,12.29
2023-04-27T15:58:19.868Z,12.22
2023-04-27T16:03:21.569Z,12.10
2023-04-27T16:08:23.215Z,12.10
2023-04-27T16:13:24.996Z,11.91
2023-04-27T16:18:26.606Z,12.03
2023-04-27T16:23:28.165Z,12.10
2023-04-27T16:28:29.812Z,12.01
2023-04-27T16:33:31.825Z,12.03
2023-04-27T16:38:33.389Z,11.87
2023-04-27T16:43:35.114Z,11.92
2023-04-27T16:48:36.762Z,11.91
2023-04-27T16:53:38.315Z,12.01
2023-04-27T16:58:40.908Z,11.92
2023-04-27T17:03:42.856Z,11.86
2023-04-27T17:08:44.644Z,11.86
2023-04-27T17:13:47.022Z,11.71
2023-04-27T17:18:48.821Z,11.72
2023-04-27T17:23:52.079Z,11.70
2023-04-27T17:28:59.699Z,11.76
2023-04-27T17:34:02.522Z,11.72
2023-04-27T17:39:04.762Z,11.66
2023-04-27T17:44:06.422Z,11.31
2023-04-27T17:49:08.043Z,11.36
2023-04-27T17:54:10.085Z,11.29
2023-04-27T17:59:11.735Z,11.32
2023-04-27T18:04:13.449Z,11.18
2023-04-27T18:09:16.110Z,11.18
2023-04-27T18:14:17.865Z,11.12
2023-04-27T18:19:19.410Z,10.99
2023-04-27T18:24:21.002Z,11.06
2023-04-27T18:29:22.622Z,10.97
2023-04-27T18:34:24.226Z,10.88
2023-04-27T18:39:25.905Z,10.91
2023-04-27T18:44:27.456Z,10.82
2023-04-27T18:49:29.048Z,10.70
2023-04-27T18:54:30.766Z,10.70
2023-04-27T18:59:32.346Z,10.53
2023-04-27T19:04:34.353Z,10.56
2023-04-27T19:09:36.117Z,10.64
2023-04-27T19:14:37.686Z,10.48
2023-04-27T19:19:39.244Z,10.22
2023-04-27T19:24:40.826Z,10.23
2023-04-27T19:29:53.728Z,10.15
2023-04-27T19:34:56.489Z,10.12
2023-04-27T19:39:58.172Z,10.06
2023-04-27T19:45:01.026Z,10.04
2023-04-27T19:50:03.222Z,10.00
2023-04-27T19:55:05.139Z,9.98
2023-04-27T20:00:10.063Z,9.86
2023-04-27T20:05:14.808Z,9.70
2023-04-27T20:10:16.933Z,9.76
2023-04-27T20:15:18.637Z,9.74
2023-04-27T20:20:20.759Z,9.76
2023-04-27T20:25:22.896Z,9.68
2023-04-27T20:30:24.521Z,9.69
2023-04-27T20:35:27.620Z,9.51
2023-04-27T20:40:29.396Z,9.61
2023-04-27T20:45:31.335Z,9.50
2023-04-27T20:50:32.948Z,9.35
2023-04-27T20:55:35.011Z,9.24
2023-04-27T21:00:37.214Z,9.08
2023-04-27T21:05:39.017Z,9.16
2023-04-27T21:10:41.079Z,9.16
2023-04-27T21:15:42.999Z,9.13
2023-04-27T21:20:44.621Z,8.97
2023-04-27T21:25:46.862Z,8.91
2023-04-27T21:30:48.590Z,8.90
2023-04-27T21:35:50.423Z,8.93
2023-04-27T21:40:52.055Z,8.99
2023-04-27T21:45:53.628Z,8.89
2023-04-27T21:50:55.228Z,8.81
2023-04-27T21:55:57.139Z,8.73
2023-04-27T22:00:58.720Z,8.59
2023-04-27T22:06:00.366Z,8.58
2023-04-27T22:11:02.067Z,8.59
2023-04-27T22:16:03.785Z,8.51
2023-04-27T22:21:05.453Z,8.41
2023-04-27T22:26:08.892Z,8.38
2023-04-27T22:31:10.877Z,8.20
2023-04-27T22:36:12.481Z,8.13
2023-04-27T22:41:14.074Z,8.03
2023-04-27T22:46:15.892Z,8.01
2023-04-27T22:51:17.460Z,8.05
2023-04-27T22:56:19.093Z,7.94
2023-04-27T23:01:20.736Z,8.00
2023-04-27T23:06:22.349Z,8.08
2023-04-27T23:11:23.974Z,8.02
2023-04-27T23:16:25.848Z,7.91
2023-04-27T23:21:28.140Z,8.02
2023-04-27T23:26:29.678Z,7.98
2023-04-27T23:31:31.910Z,7.74
2023-04-27T23:36:33.528Z,7.81
2023-04-27T23:41:35.113Z,7.73
2023-04-27T23:46:36.777Z,7.57
2023-04-27T23:51:38.510Z,7.57
2023-04-27T23:56:40.066Z,7.54
